UKLR/RWN METAR and TAF weather

Enter ICAO airport designator
Station Type Date Time Source
UKLR METAR 2021/07/30 08:00 UTC NOAA

UKLR 300800Z 24003MPS 190V300 CAVOK 26/16 Q1012 R29/090070 NOSIG


Station Type Date Time Source
UKLR Decoded METAR 2021/07/30 08:00 UTC NOAA

Rivne, Ukraine (UKLR) 50-35N 026-08E
Jul 30, 2021 - 04:00 AM EDT / 2021.07.30 0800 UTC
Wind: from the WSW (240 degrees) at 7 MPH (6 KT) (direction variable):0
Visibility: greater than 7 mile(s):0
Temperature: 78 F (26 C)
Dew Point: 60 F (16 C)
Relative Humidity: 54%
Pressure (altimeter): 29.88 in. Hg (1012 hPa)
ob: UKLR 300800Z 24003MPS 190V300 CAVOK 26/16 Q1012 R29/090070 NOSIG
cycle: 8

Station Type Date Time Source
UKLR TAF 2019/08/16 12:15 UTC NOAA

TAF TAF UKLR 161105Z 1612/1821 35003MPS 9999 BKN020 SCT023CB

Example: see airport list